sensor_id;sensor_type;location;lat;lon;timestamp;temperature;humidity
46117;DHT22;32591;48.102;11.772;2023-03-11T00:01:43;3.30;99.90
46117;DHT22;32591;48.102;11.772;2023-03-11T00:04:09;3.20;99.90
46117;DHT22;32591;48.102;11.772;2023-03-11T00:06:37;3.50;99.90
46117;DHT22;32591;48.102;11.772;2023-03-11T00:09:04;3.20;99.90
46117;DHT22;32591;48.102;11.772;2023-03-11T00:11:31;3.20;99.90
46117;DHT22;32591;48.102;11.772;2023-03-11T00:13:58;3.20;99.90
46117;DHT22;32591;48.102;11.772;2023-03-11T00:16:26;3.20;99.90
46117;DHT22;32591;48.102;11.772;2023-03-11T00:18:53;3.10;99.90
46117;DHT22;32591;48.102;11.772;2023-03-11T00:21:19;3.10;99.90
46117;DHT22;32591;48.102;11.772;2023-03-11T00:23:46;2.90;99.90
46117;DHT22;32591;48.102;11.772;2023-03-11T00:26:13;2.90;99.90
46117;DHT22;32591;48.102;11.772;2023-03-11T00:28:40;2.90;99.90
46117;DHT22;32591;48.102;11.772;2023-03-11T00:31:07;2.80;99.90
46117;DHT22;32591;48.102;11.772;2023-03-11T00:33:35;2.70;99.90
46117;DHT22;32591;48.102;11.772;2023-03-11T00:36:03;2.70;99.90
46117;DHT22;32591;48.102;11.772;2023-03-11T00:38:31;2.70;99.90
46117;DHT22;32591;48.102;11.772;2023-03-11T00:40:58;2.70;99.90
46117;DHT22;32591;48.102;11.772;2023-03-11T00:43:26;2.70;99.90
46117;DHT22;32591;48.102;11.772;2023-03-11T00:45:52;2.60;99.90
46117;DHT22;32591;48.102;11.772;2023-03-11T00:48:19;2.60;99.90
46117;DHT22;32591;48.102;11.772;2023-03-11T00:50:47;2.60;99.90
46117;DHT22;32591;48.102;11.772;2023-03-11T00:53:14;2.50;99.90
46117;DHT22;32591;48.102;11.772;2023-03-11T00:55:41;2.50;99.90
46117;DHT22;32591;48.102;11.772;2023-03-11T00:58:09;2.60;99.90
46117;DHT22;32591;48.102;11.772;2023-03-11T01:00:36;2.50;99.90
46117;DHT22;32591;48.102;11.772;2023-03-11T01:03:03;2.60;99.90
46117;DHT22;32591;48.102;11.772;2023-03-11T01:05:32;2.50;99.90
46117;DHT22;32591;48.102;11.772;2023-03-11T01:08:02;2.60;99.90
46117;DHT22;32591;48.102;11.772;2023-03-11T01:10:32;2.50;99.90
46117;DHT22;32591;48.102;11.772;2023-03-11T01:13:00;2.50;99.90
46117;DHT22;32591;48.102;11.772;2023-03-11T01:15:30;2.40;99.90
46117;DHT22;32591;48.102;11.772;2023-03-11T01:17:58;2.30;99.90
46117;DHT22;32591;48.102;11.772;2023-03-11T01:20:26;2.40;99.90
46117;DHT22;32591;48.102;11.772;2023-03-11T01:22:53;2.40;99.90
46117;DHT22;32591;48.102;11.772;2023-03-11T01:25:22;2.40;99.90
46117;DHT22;32591;48.102;11.772;2023-03-11T01:27:50;2.40;99.90
46117;DHT22;32591;48.102;11.772;2023-03-11T01:30:19;2.30;99.90
46117;DHT22;32591;48.102;11.772;2023-03-11T01:32:47;2.30;99.90
46117;DHT22;32591;48.102;11.772;2023-03-11T01:35:16;2.30;99.90
46117;DHT22;32591;48.102;11.772;2023-03-11T01:37:43;2.30;99.90
46117;DHT22;32591;48.102;11.772;2023-03-11T01:40:12;2.20;99.90
46117;DHT22;32591;48.102;11.772;2023-03-11T01:42:42;2.30;99.90
46117;DHT22;32591;48.102;11.772;2023-03-11T01:45:28;2.20;99.90
46117;DHT22;32591;48.102;11.772;2023-03-11T01:48:04;2.30;99.90
46117;DHT22;32591;48.102;11.772;2023-03-11T01:50:33;2.30;99.90
46117;DHT22;32591;48.102;11.772;2023-03-11T01:53:02;2.30;99.90
46117;DHT22;32591;48.102;11.772;2023-03-11T01:55:31;2.20;99.90
46117;DHT22;32591;48.102;11.772;2023-03-11T01:58:02;2.20;99.90
46117;DHT22;32591;48.102;11.772;2023-03-11T02:00:31;2.30;99.90
46117;DHT22;32591;48.102;11.772;2023-03-11T02:03:00;2.30;99.90
46117;DHT22;32591;48.102;11.772;2023-03-11T02:05:29;2.30;99.90
46117;DHT22;32591;48.102;11.772;2023-03-11T02:07:58;2.20;99.90
46117;DHT22;32591;48.102;11.772;2023-03-11T02:10:26;2.20;99.90
46117;DHT22;32591;48.102;11.772;2023-03-11T02:12:53;2.20;99.90
46117;DHT22;32591;48.102;11.772;2023-03-11T02:15:21;2.20;99.90
46117;DHT22;32591;48.102;11.772;2023-03-11T02:17:50;2.20;99.90
46117;DHT22;32591;48.102;11.772;2023-03-11T02:20:26;2.10;99.90
46117;DHT22;32591;48.102;11.772;2023-03-11T02:22:59;2.10;99.90
46117;DHT22;32591;48.102;11.772;2023-03-11T02:25:33;2.00;99.90
46117;DHT22;32591;48.102;11.772;2023-03-11T02:28:06;1.90;99.90
46117;DHT22;32591;48.102;11.772;2023-03-11T02:30:36;1.90;99.90
46117;DHT22;32591;48.102;11.772;2023-03-11T02:33:05;1.90;99.90
46117;DHT22;32591;48.102;11.772;2023-03-11T02:35:32;1.90;99.90
46117;DHT22;32591;48.102;11.772;2023-03-11T02:37:59;1.90;99.90
46117;DHT22;32591;48.102;11.772;2023-03-11T02:43:22;1.90;99.90
46117;DHT22;32591;48.102;11.772;2023-03-11T02:45:52;1.80;99.90
46117;DHT22;32591;48.102;11.772;2023-03-11T02:48:20;1.80;99.90
46117;DHT22;32591;48.102;11.772;2023-03-11T02:50:48;1.80;99.90
46117;DHT22;32591;48.102;11.772;2023-03-11T02:53:15;1.70;99.90
46117;DHT22;32591;48.102;11.772;2023-03-11T02:55:42;1.70;99.90
46117;DHT22;32591;48.102;11.772;2023-03-11T02:58:09;1.70;99.90
46117;DHT22;32591;48.102;11.772;2023-03-11T03:00:37;1.70;99.90
46117;DHT22;32591;48.102;11.772;2023-03-11T03:03:04;1.70;99.90
46117;DHT22;32591;48.102;11.772;2023-03-11T03:05:31;1.70;99.90
46117;DHT22;32591;48.102;11.772;2023-03-11T03:07:58;1.70;99.90
46117;DHT22;32591;48.102;11.772;2023-03-11T03:10:24;1.70;99.90
46117;DHT22;32591;48.102;11.772;2023-03-11T03:12:52;1.60;99.90
46117;DHT22;32591;48.102;11.772;2023-03-11T03:15:18;1.60;99.90
46117;DHT22;32591;48.102;11.772;2023-03-11T03:17:47;1.60;99.90
46117;DHT22;32591;48.102;11.772;2023-03-11T03:20:16;1.60;99.90
46117;DHT22;32591;48.102;11.772;2023-03-11T03:22:44;1.50;99.90
46117;DHT22;32591;48.102;11.772;2023-03-11T03:25:10;1.50;99.90
46117;DHT22;32591;48.102;11.772;2023-03-11T03:27:38;1.60;99.90
46117;DHT22;32591;48.102;11.772;2023-03-11T03:30:06;1.50;99.90
46117;DHT22;32591;48.102;11.772;2023-03-11T03:32:34;1.50;99.90
46117;DHT22;32591;48.102;11.772;2023-03-11T03:35:04;1.50;99.90
46117;DHT22;32591;48.102;11.772;2023-03-11T03:37:32;1.50;99.90
46117;DHT22;32591;48.102;11.772;2023-03-11T03:40:01;1.50;99.90
46117;DHT22;32591;48.102;11.772;2023-03-11T03:42:32;1.40;99.90
46117;DHT22;32591;48.102;11.772;2023-03-11T03:45:00;1.40;99.90
46117;DHT22;32591;48.102;11.772;2023-03-11T03:47:27;1.40;99.90
46117;DHT22;32591;48.102;11.772;2023-03-11T03:49:54;1.30;99.90
46117;DHT22;32591;48.102;11.772;2023-03-11T03:52:22;1.30;99.90
46117;DHT22;32591;48.102;11.772;2023-03-11T03:54:49;1.40;99.90
46117;DHT22;32591;48.102;11.772;2023-03-11T03:57:16;1.40;99.90
46117;DHT22;32591;48.102;11.772;2023-03-11T03:59:43;1.30;99.90
46117;DHT22;32591;48.102;11.772;2023-03-11T04:02:10;1.30;99.90
46117;DHT22;32591;48.102;11.772;2023-03-11T04:04:37;1.30;99.90
46117;DHT22;32591;48.102;11.772;2023-03-11T04:07:04;1.30;99.90
46117;DHT22;32591;48.102;11.772;2023-03-11T04:09:33;1.30;99.90
46117;DHT22;32591;48.102;11.772;2023-03-11T04:12:00;1.30;99.90
46117;DHT22;32591;48.102;11.772;2023-03-11T04:14:26;1.30;99.90
46117;DHT22;32591;48.102;11.772;2023-03-11T04:16:53;1.20;99.90
46117;DHT22;32591;48.102;11.772;2023-03-11T04:19:20;1.20;99.90
46117;DHT22;32591;48.102;11.772;2023-03-11T04:21:47;1.20;99.90
46117;DHT22;32591;48.102;11.772;2023-03-11T04:24:16;1.20;99.90
46117;DHT22;32591;48.102;11.772;2023-03-11T04:26:45;1.20;99.90
46117;DHT22;32591;48.102;11.772;2023-03-11T04:29:12;1.10;99.90
46117;DHT22;32591;48.102;11.772;2023-03-11T04:31:39;1.10;99.90
46117;DHT22;32591;48.102;11.772;2023-03-11T04:34:06;1.10;99.90
46117;DHT22;32591;48.102;11.772;2023-03-11T04:36:32;1.20;99.90
46117;DHT22;32591;48.102;11.772;2023-03-11T04:38:59;1.10;99.90
46117;DHT22;32591;48.102;11.772;2023-03-11T04:41:26;1.20;99.90
46117;DHT22;32591;48.102;11.772;2023-03-11T04:43:54;1.10;99.90
46117;DHT22;32591;48.102;11.772;2023-03-11T04:46:21;1.10;99.90
46117;DHT22;32591;48.102;11.772;2023-03-11T04:48:48;1.10;99.90
46117;DHT22;32591;48.102;11.772;2023-03-11T04:51:15;1.00;99.90
46117;DHT22;32591;48.102;11.772;2023-03-11T04:53:42;1.10;99.90
46117;DHT22;32591;48.102;11.772;2023-03-11T04:56:09;1.00;99.90
46117;DHT22;32591;48.102;11.772;2023-03-11T04:58:36;1.00;99.90
46117;DHT22;32591;48.102;11.772;2023-03-11T05:01:04;1.00;99.90
46117;DHT22;32591;48.102;11.772;2023-03-11T05:03:31;1.10;99.90
46117;DHT22;32591;48.102;11.772;2023-03-11T05:05:58;1.10;99.90
46117;DHT22;32591;48.102;11.772;2023-03-11T05:08:26;1.10;99.90
46117;DHT22;32591;48.102;11.772;2023-03-11T05:10:53;1.10;99.90
46117;DHT22;32591;48.102;11.772;2023-03-11T05:13:20;1.20;99.90
46117;DHT22;32591;48.102;11.772;2023-03-11T05:15:47;1.10;99.90
46117;DHT22;32591;48.102;11.772;2023-03-11T05:18:15;1.20;99.90
46117;DHT22;32591;48.102;11.772;2023-03-11T05:20:42;1.20;99.90
46117;DHT22;32591;48.102;11.772;2023-03-11T05:23:10;1.20;99.90
46117;DHT22;32591;48.102;11.772;2023-03-11T05:25:38;1.20;99.90
46117;DHT22;32591;48.102;11.772;2023-03-11T05:28:05;1.30;99.90
46117;DHT22;32591;48.102;11.772;2023-03-11T05:30:32;1.20;99.90
46117;DHT22;32591;48.102;11.772;2023-03-11T05:32:59;1.30;99.90
46117;DHT22;32591;48.102;11.772;2023-03-11T05:35:28;1.40;99.90
46117;DHT22;32591;48.102;11.772;2023-03-11T05:37:55;1.40;99.90
46117;DHT22;32591;48.102;11.772;2023-03-11T05:40:22;1.40;99.90
46117;DHT22;32591;48.102;11.772;2023-03-11T05:42:48;1.30;99.90
46117;DHT22;32591;48.102;11.772;2023-03-11T05:45:16;1.40;99.90
46117;DHT22;32591;48.102;11.772;2023-03-11T05:47:43;1.30;99.90
46117;DHT22;32591;48.102;11.772;2023-03-11T05:50:10;1.30;99.90
46117;DHT22;32591;48.102;11.772;2023-03-11T05:52:39;1.40;99.90
46117;DHT22;32591;48.102;11.772;2023-03-11T05:55:06;1.40;99.90
46117;DHT22;32591;48.102;11.772;2023-03-11T05:57:35;1.40;99.90
46117;DHT22;32591;48.102;11.772;2023-03-11T06:00:03;1.40;99.90
46117;DHT22;32591;48.102;11.772;2023-03-11T06:02:31;1.40;99.90
46117;DHT22;32591;48.102;11.772;2023-03-11T06:04:58;1.40;99.90
46117;DHT22;32591;48.102;11.772;2023-03-11T06:07:25;1.30;99.90
46117;DHT22;32591;48.102;11.772;2023-03-11T06:09:53;1.30;99.90
46117;DHT22;32591;48.102;11.772;2023-03-11T06:12:20;1.30;99.90
46117;DHT22;32591;48.102;11.772;2023-03-11T06:14:47;1.40;99.90
46117;DHT22;32591;48.102;11.772;2023-03-11T06:17:14;1.40;99.90
46117;DHT22;32591;48.102;11.772;2023-03-11T06:19:41;1.30;99.90
46117;DHT22;32591;48.102;11.772;2023-03-11T06:22:08;1.30;99.90
46117;DHT22;32591;48.102;11.772;2023-03-11T06:24:35;1.30;99.90
46117;DHT22;32591;48.102;11.772;2023-03-11T06:27:03;1.20;99.90
46117;DHT22;32591;48.102;11.772;2023-03-11T06:29:30;1.30;99.90
46117;DHT22;32591;48.102;11.772;2023-03-11T06:31:57;1.20;99.90
46117;DHT22;32591;48.102;11.772;2023-03-11T06:34:24;1.20;99.90
46117;DHT22;32591;48.102;11.772;2023-03-11T06:36:51;1.20;99.90
46117;DHT22;32591;48.102;11.772;2023-03-11T06:39:19;1.10;99.90
46117;DHT22;32591;48.102;11.772;2023-03-11T06:41:46;1.10;99.90
46117;DHT22;32591;48.102;11.772;2023-03-11T06:44:14;1.20;99.90
46117;DHT22;32591;48.102;11.772;2023-03-11T06:46:41;1.20;99.90
46117;DHT22;32591;48.102;11.772;2023-03-11T06:49:08;1.30;99.90
46117;DHT22;32591;48.102;11.772;2023-03-11T06:51:35;1.20;99.90
46117;DHT22;32591;48.102;11.772;2023-03-11T06:54:02;1.20;99.90
46117;DHT22;32591;48.102;11.772;2023-03-11T06:56:29;1.10;99.90
46117;DHT22;32591;48.102;11.772;2023-03-11T06:58:55;1.20;99.90
46117;DHT22;32591;48.102;11.772;2023-03-11T07:01:25;1.20;99.90
46117;DHT22;32591;48.102;11.772;2023-03-11T07:03:52;1.20;99.90
46117;DHT22;32591;48.102;11.772;2023-03-11T07:06:20;1.30;99.90
46117;DHT22;32591;48.102;11.772;2023-03-11T07:08:49;1.30;99.90
46117;DHT22;32591;48.102;11.772;2023-03-11T07:11:19;1.30;99.90
46117;DHT22;32591;48.102;11.772;2023-03-11T07:13:47;1.30;99.90
46117;DHT22;32591;48.102;11.772;2023-03-11T07:16:16;1.40;99.90
46117;DHT22;32591;48.102;11.772;2023-03-11T07:18:46;1.30;99.90
46117;DHT22;32591;48.102;11.772;2023-03-11T07:21:16;1.20;99.90
46117;DHT22;32591;48.102;11.772;2023-03-11T07:23:45;1.30;99.90
46117;DHT22;32591;48.102;11.772;2023-03-11T07:26:14;1.40;99.90
46117;DHT22;32591;48.102;11.772;2023-03-11T07:28:42;1.50;99.90
46117;DHT22;32591;48.102;11.772;2023-03-11T07:31:12;1.50;99.90
46117;DHT22;32591;48.102;11.772;2023-03-11T07:33:40;1.50;99.90
46117;DHT22;32591;48.102;11.772;2023-03-11T07:36:11;1.50;99.90
46117;DHT22;32591;48.102;11.772;2023-03-11T07:38:38;1.60;99.90
46117;DHT22;32591;48.102;11.772;2023-03-11T07:41:06;1.70;99.90
46117;DHT22;32591;48.102;11.772;2023-03-11T07:43:33;1.70;99.90
46117;DHT22;32591;48.102;11.772;2023-03-11T07:46:06;1.60;99.90
46117;DHT22;32591;48.102;11.772;2023-03-11T07:48:35;1.50;99.90
46117;DHT22;32591;48.102;11.772;2023-03-11T07:51:04;1.50;99.90
46117;DHT22;32591;48.102;11.772;2023-03-11T07:53:34;1.60;99.90
46117;DHT22;32591;48.102;11.772;2023-03-11T07:56:01;1.90;99.90
46117;DHT22;32591;48.102;11.772;2023-03-11T07:58:29;1.90;99.90
46117;DHT22;32591;48.102;11.772;2023-03-11T08:01:02;1.90;99.90
46117;DHT22;32591;48.102;11.772;2023-03-11T08:03:29;2.00;99.90
46117;DHT22;32591;48.102;11.772;2023-03-11T08:05:56;2.00;99.90
46117;DHT22;32591;48.102;11.772;2023-03-11T08:08:23;2.20;99.90
46117;DHT22;32591;48.102;11.772;2023-03-11T08:10:51;2.30;99.90
46117;DHT22;32591;48.102;11.772;2023-03-11T08:13:18;2.50;99.90
46117;DHT22;32591;48.102;11.772;2023-03-11T08:15:45;2.60;99.40
46117;DHT22;32591;48.102;11.772;2023-03-11T08:18:12;2.40;98.80
46117;DHT22;32591;48.102;11.772;2023-03-11T08:20:39;2.30;99.80
46117;DHT22;32591;48.102;11.772;2023-03-11T08:23:06;2.30;99.60
46117;DHT22;32591;48.102;11.772;2023-03-11T08:25:33;2.20;99.70
46117;DHT22;32591;48.102;11.772;2023-03-11T08:28:01;2.20;99.90
46117;DHT22;32591;48.102;11.772;2023-03-11T08:30:28;2.30;99.60
46117;DHT22;32591;48.102;11.772;2023-03-11T08:32:54;2.40;99.00
46117;DHT22;32591;48.102;11.772;2023-03-11T08:35:21;2.40;97.90
46117;DHT22;32591;48.102;11.772;2023-03-11T08:37:48;2.30;97.40
46117;DHT22;32591;48.102;11.772;2023-03-11T08:40:16;2.20;97.90
46117;DHT22;32591;48.102;11.772;2023-03-11T08:42:43;2.30;98.10
46117;DHT22;32591;48.102;11.772;2023-03-11T08:45:12;2.40;97.20
46117;DHT22;32591;48.102;11.772;2023-03-11T08:47:39;2.40;96.90
46117;DHT22;32591;48.102;11.772;2023-03-11T08:50:12;2.40;97.50
46117;DHT22;32591;48.102;11.772;2023-03-11T08:52:41;2.50;98.00
46117;DHT22;32591;48.102;11.772;2023-03-11T08:55:09;2.70;95.90
46117;DHT22;32591;48.102;11.772;2023-03-11T08:57:38;2.60;97.20
46117;DHT22;32591;48.102;11.772;2023-03-11T09:00:07;2.70;95.20
46117;DHT22;32591;48.102;11.772;2023-03-11T09:02:36;2.50;96.20
46117;DHT22;32591;48.102;11.772;2023-03-11T09:05:03;2.40;95.70
46117;DHT22;32591;48.102;11.772;2023-03-11T09:07:31;2.50;97.20
46117;DHT22;32591;48.102;11.772;2023-03-11T09:09:57;2.70;96.70
46117;DHT22;32591;48.102;11.772;2023-03-11T09:12:24;2.90;95.70
46117;DHT22;32591;48.102;11.772;2023-03-11T09:14:51;2.80;95.70
46117;DHT22;32591;48.102;11.772;2023-03-11T09:17:19;3.00;96.50
46117;DHT22;32591;48.102;11.772;2023-03-11T09:19:47;3.20;95.50
46117;DHT22;32591;48.102;11.772;2023-03-11T09:22:14;3.30;95.00
46117;DHT22;32591;48.102;11.772;2023-03-11T09:24:41;3.20;94.70
46117;DHT22;32591;48.102;11.772;2023-03-11T09:27:08;3.20;94.50
46117;DHT22;32591;48.102;11.772;2023-03-11T09:29:35;3.10;95.80
46117;DHT22;32591;48.102;11.772;2023-03-11T09:32:02;3.20;95.10
46117;DHT22;32591;48.102;11.772;2023-03-11T09:34:30;3.30;94.60
46117;DHT22;32591;48.102;11.772;2023-03-11T09:36:59;3.30;94.60
46117;DHT22;32591;48.102;11.772;2023-03-11T09:39:26;3.20;94.80
46117;DHT22;32591;48.102;11.772;2023-03-11T09:41:55;3.30;95.20
46117;DHT22;32591;48.102;11.772;2023-03-11T09:44:27;3.60;93.90
46117;DHT22;32591;48.102;11.772;2023-03-11T09:47:21;3.80;92.90
46117;DHT22;32591;48.102;11.772;2023-03-11T09:50:13;3.60;90.70
46117;DHT22;32591;48.102;11.772;2023-03-11T09:53:11;3.80;87.90
46117;DHT22;32591;48.102;11.772;2023-03-11T09:55:46;3.80;84.80
46117;DHT22;32591;48.102;11.772;2023-03-11T09:58:20;3.90;85.50
46117;DHT22;32591;48.102;11.772;2023-03-11T10:00:49;3.90;82.50
46117;DHT22;32591;48.102;11.772;2023-03-11T10:03:26;4.00;81.70
46117;DHT22;32591;48.102;11.772;2023-03-11T10:06:03;4.00;79.70
46117;DHT22;32591;48.102;11.772;2023-03-11T10:08:41;4.10;79.60
46117;DHT22;32591;48.102;11.772;2023-03-11T10:11:35;4.30;92.00
46117;DHT22;32591;48.102;11.772;2023-03-11T10:14:27;4.80;80.90
46117;DHT22;32591;48.102;11.772;2023-03-11T10:17:00;4.90;77.80
46117;DHT22;32591;48.102;11.772;2023-03-11T10:19:38;4.90;79.70
46117;DHT22;32591;48.102;11.772;2023-03-11T10:22:13;5.10;74.30
46117;DHT22;32591;48.102;11.772;2023-03-11T10:24:58;5.10;71.40
46117;DHT22;32591;48.102;11.772;2023-03-11T10:27:34;5.20;76.10
46117;DHT22;32591;48.102;11.772;2023-03-11T10:30:08;5.30;77.80
46117;DHT22;32591;48.102;11.772;2023-03-11T10:32:41;5.40;74.60
46117;DHT22;32591;48.102;11.772;2023-03-11T10:35:16;5.20;72.20
46117;DHT22;32591;48.102;11.772;2023-03-11T10:37:49;5.10;74.40
46117;DHT22;32591;48.102;11.772;2023-03-11T10:40:25;5.20;73.80
46117;DHT22;32591;48.102;11.772;2023-03-11T10:42:56;5.10;72.80
46117;DHT22;32591;48.102;11.772;2023-03-11T10:45:25;4.90;74.80
46117;DHT22;32591;48.102;11.772;2023-03-11T10:47:55;4.80;69.60
46117;DHT22;32591;48.102;11.772;2023-03-11T10:50:22;4.80;70.10
46117;DHT22;32591;48.102;11.772;2023-03-11T10:53:06;4.70;73.50
46117;DHT22;32591;48.102;11.772;2023-03-11T10:55:44;4.90;74.60
46117;DHT22;32591;48.102;11.772;2023-03-11T10:58:21;5.00;74.80
46117;DHT22;32591;48.102;11.772;2023-03-11T11:01:00;5.00;73.80
46117;DHT22;32591;48.102;11.772;2023-03-11T11:03:28;4.80;69.60
46117;DHT22;32591;48.102;11.772;2023-03-11T11:05:58;4.80;73.70
46117;DHT22;32591;48.102;11.772;2023-03-11T11:08:26;4.90;72.30
46117;DHT22;32591;48.102;11.772;2023-03-11T11:10:56;5.10;71.70
46117;DHT22;32591;48.102;11.772;2023-03-11T11:13:26;5.00;71.80
46117;DHT22;32591;48.102;11.772;2023-03-11T11:15:57;4.90;72.00
46117;DHT22;32591;48.102;11.772;2023-03-11T11:18:27;5.00;74.20
46117;DHT22;32591;48.102;11.772;2023-03-11T11:20:59;4.70;72.40
46117;DHT22;32591;48.102;11.772;2023-03-11T11:23:32;4.60;72.70
46117;DHT22;32591;48.102;11.772;2023-03-11T11:26:04;4.50;74.00
46117;DHT22;32591;48.102;11.772;2023-03-11T11:28:33;4.40;74.70
46117;DHT22;32591;48.102;11.772;2023-03-11T11:31:04;4.50;75.20
46117;DHT22;32591;48.102;11.772;2023-03-11T11:33:34;4.80;77.90
46117;DHT22;32591;48.102;11.772;2023-03-11T11:36:11;5.30;77.00
46117;DHT22;32591;48.102;11.772;2023-03-11T11:38:40;5.60;74.20
46117;DHT22;32591;48.102;11.772;2023-03-11T11:41:12;5.30;73.40
46117;DHT22;32591;48.102;11.772;2023-03-11T11:43:45;5.40;76.50
46117;DHT22;32591;48.102;11.772;2023-03-11T11:46:20;5.60;75.40
46117;DHT22;32591;48.102;11.772;2023-03-11T11:48:54;5.60;72.40
46117;DHT22;32591;48.102;11.772;2023-03-11T11:51:29;5.10;73.70
46117;DHT22;32591;48.102;11.772;2023-03-11T11:54:00;4.80;76.00
46117;DHT22;32591;48.102;11.772;2023-03-11T11:56:33;4.90;74.70
46117;DHT22;32591;48.102;11.772;2023-03-11T11:59:00;4.90;72.80
46117;DHT22;32591;48.102;11.772;2023-03-11T12:01:37;4.80;71.70
46117;DHT22;32591;48.102;11.772;2023-03-11T12:04:34;4.70;72.40
46117;DHT22;32591;48.102;11.772;2023-03-11T12:07:20;4.40;71.70
46117;DHT22;32591;48.102;11.772;2023-03-11T12:10:08;4.60;72.70
46117;DHT22;32591;48.102;11.772;2023-03-11T12:12:48;4.80;72.70
46117;DHT22;32591;48.102;11.772;2023-03-11T12:15:22;5.00;73.30
46117;DHT22;32591;48.102;11.772;2023-03-11T12:17:53;5.20;70.20
46117;DHT22;32591;48.102;11.772;2023-03-11T12:20:28;5.20;70.20
46117;DHT22;32591;48.102;11.772;2023-03-11T12:23:17;5.20;71.80
46117;DHT22;32591;48.102;11.772;2023-03-11T12:25:54;5.10;74.90
46117;DHT22;32591;48.102;11.772;2023-03-11T12:28:37;5.00;73.20
46117;DHT22;32591;48.102;11.772;2023-03-11T12:31:08;5.00;73.30
46117;DHT22;32591;48.102;11.772;2023-03-11T12:33:38;4.70;73.80
46117;DHT22;32591;48.102;11.772;2023-03-11T12:36:16;4.80;75.50
46117;DHT22;32591;48.102;11.772;2023-03-11T12:38:48;4.90;71.50
46117;DHT22;32591;48.102;11.772;2023-03-11T12:41:34;4.90;71.00
46117;DHT22;32591;48.102;11.772;2023-03-11T12:44:25;5.10;71.20
46117;DHT22;32591;48.102;11.772;2023-03-11T12:53:16;5.20;67.30
46117;DHT22;32591;48.102;11.772;2023-03-11T12:55:57;5.30;73.00
46117;DHT22;32591;48.102;11.772;2023-03-11T12:58:53;5.20;74.00
46117;DHT22;32591;48.102;11.772;2023-03-11T13:01:57;5.40;74.00
46117;DHT22;32591;48.102;11.772;2023-03-11T13:04:45;5.20;73.50
46117;DHT22;32591;48.102;11.772;2023-03-11T13:07:39;5.20;73.90
46117;DHT22;32591;48.102;11.772;2023-03-11T13:10:14;5.40;72.90
46117;DHT22;32591;48.102;11.772;2023-03-11T13:12:44;5.50;71.90
46117;DHT22;32591;48.102;11.772;2023-03-11T13:15:34;5.70;71.80
46117;DHT22;32591;48.102;11.772;2023-03-11T13:18:14;5.90;70.20
46117;DHT22;32591;48.102;11.772;2023-03-11T13:20:46;6.00;71.90
46117;DHT22;32591;48.102;11.772;2023-03-11T13:23:32;6.20;73.10
46117;DHT22;32591;48.102;11.772;2023-03-11T13:26:20;6.30;69.20
46117;DHT22;32591;48.102;11.772;2023-03-11T13:32:21;6.00;70.70
46117;DHT22;32591;48.102;11.772;2023-03-11T13:35:00;6.00;69.40
46117;DHT22;32591;48.102;11.772;2023-03-11T13:37:43;6.10;70.40
46117;DHT22;32591;48.102;11.772;2023-03-11T13:40:28;6.20;69.70
46117;DHT22;32591;48.102;11.772;2023-03-11T13:43:00;6.20;69.50
46117;DHT22;32591;48.102;11.772;2023-03-11T13:45:29;6.30;69.70
46117;DHT22;32591;48.102;11.772;2023-03-11T13:48:02;6.20;67.70
46117;DHT22;32591;48.102;11.772;2023-03-11T13:50:35;6.20;68.60
46117;DHT22;32591;48.102;11.772;2023-03-11T13:53:08;6.30;67.40
46117;DHT22;32591;48.102;11.772;2023-03-11T13:55:38;6.20;66.60
46117;DHT22;32591;48.102;11.772;2023-03-11T13:58:14;6.10;66.50
46117;DHT22;32591;48.102;11.772;2023-03-11T14:00:49;6.30;67.80
46117;DHT22;32591;48.102;11.772;2023-03-11T14:03:19;6.50;66.60
46117;DHT22;32591;48.102;11.772;2023-03-11T14:05:57;6.60;66.20
46117;DHT22;32591;48.102;11.772;2023-03-11T14:08:27;6.60;68.80
46117;DHT22;32591;48.102;11.772;2023-03-11T14:10:55;6.50;66.50
46117;DHT22;32591;48.102;11.772;2023-03-11T14:13:25;6.50;65.00
46117;DHT22;32591;48.102;11.772;2023-03-11T14:15:59;6.60;65.10
46117;DHT22;32591;48.102;11.772;2023-03-11T14:18:39;6.80;65.50
46117;DHT22;32591;48.102;11.772;2023-03-11T14:21:13;6.90;65.70
46117;DHT22;32591;48.102;11.772;2023-03-11T14:23:44;7.00;63.20
46117;DHT22;32591;48.102;11.772;2023-03-11T14:26:14;7.00;62.90
46117;DHT22;32591;48.102;11.772;2023-03-11T14:28:45;7.00;63.20
46117;DHT22;32591;48.102;11.772;2023-03-11T14:31:22;6.90;64.00
46117;DHT22;32591;48.102;11.772;2023-03-11T14:33:55;6.90;66.90
46117;DHT22;32591;48.102;11.772;2023-03-11T14:36:24;6.80;66.20
46117;DHT22;32591;48.102;11.772;2023-03-11T14:38:51;7.00;66.60
46117;DHT22;32591;48.102;11.772;2023-03-11T14:41:18;7.20;66.70
46117;DHT22;32591;48.102;11.772;2023-03-11T14:43:48;7.20;65.90
46117;DHT22;32591;48.102;11.772;2023-03-11T14:46:20;7.00;64.20
46117;DHT22;32591;48.102;11.772;2023-03-11T14:48:49;6.70;65.40
46117;DHT22;32591;48.102;11.772;2023-03-11T14:51:18;6.50;66.20
46117;DHT22;32591;48.102;11.772;2023-03-11T14:53:58;6.20;67.90
46117;DHT22;32591;48.102;11.772;2023-03-11T14:56:34;6.40;68.60
46117;DHT22;32591;48.102;11.772;2023-03-11T14:59:05;6.50;67.40
46117;DHT22;32591;48.102;11.772;2023-03-11T15:01:38;6.40;68.30
46117;DHT22;32591;48.102;11.772;2023-03-11T15:04:09;6.60;68.30
46117;DHT22;32591;48.102;11.772;2023-03-11T15:06:41;6.50;67.40
46117;DHT22;32591;48.102;11.772;2023-03-11T15:09:11;6.50;67.50
46117;DHT22;32591;48.102;11.772;2023-03-11T15:11:46;6.50;67.60
46117;DHT22;32591;48.102;11.772;2023-03-11T15:14:19;6.20;67.60
46117;DHT22;32591;48.102;11.772;2023-03-11T15:16:48;6.20;69.10
46117;DHT22;32591;48.102;11.772;2023-03-11T15:19:30;6.50;67.90
46117;DHT22;32591;48.102;11.772;2023-03-11T15:22:15;6.40;67.60
46117;DHT22;32591;48.102;11.772;2023-03-11T15:24:49;6.40;68.40
46117;DHT22;32591;48.102;11.772;2023-03-11T15:27:26;6.40;68.60
46117;DHT22;32591;48.102;11.772;2023-03-11T15:29:56;6.40;68.70
46117;DHT22;32591;48.102;11.772;2023-03-11T15:35:15;6.40;69.80
46117;DHT22;32591;48.102;11.772;2023-03-11T15:37:47;6.50;71.20
46117;DHT22;32591;48.102;11.772;2023-03-11T15:40:22;6.70;70.90
46117;DHT22;32591;48.102;11.772;2023-03-11T15:43:16;6.80;70.20
46117;DHT22;32591;48.102;11.772;2023-03-11T15:45:48;6.80;70.30
46117;DHT22;32591;48.102;11.772;2023-03-11T15:48:15;6.90;68.90
46117;DHT22;32591;48.102;11.772;2023-03-11T15:50:46;6.80;69.20
46117;DHT22;32591;48.102;11.772;2023-03-11T15:53:15;6.80;69.10
46117;DHT22;32591;48.102;11.772;2023-03-11T15:55:42;6.40;71.00
46117;DHT22;32591;48.102;11.772;2023-03-11T15:58:13;6.10;72.70
46117;DHT22;32591;48.102;11.772;2023-03-11T16:00:44;5.80;71.80
46117;DHT22;32591;48.102;11.772;2023-03-11T16:03:12;5.40;73.30
46117;DHT22;32591;48.102;11.772;2023-03-11T16:05:39;5.20;75.70
46117;DHT22;32591;48.102;11.772;2023-03-11T16:08:06;5.30;76.50